createdAt,value
2022-11-22T00:01:43.857Z,11.73
2022-11-22T00:05:45.449Z,11.60
2022-11-22T00:09:46.892Z,12.88
2022-11-22T00:13:48.355Z,11.55
2022-11-22T00:17:49.934Z,11.38
2022-11-22T00:21:51.627Z,11.48
2022-11-22T00:25:53.064Z,8.82
2022-11-22T00:29:54.593Z,11.85
2022-11-22T00:33:56.188Z,10.15
2022-11-22T00:37:57.661Z,11.07
2022-11-22T00:41:59.216Z,11.30
2022-11-22T00:46:01.324Z,10.20
2022-11-22T00:50:03.872Z,11.88
2022-11-22T00:54:05.531Z,10.75
2022-11-22T00:58:06.975Z,11.40
2022-11-22T01:02:08.559Z,11.27
2022-11-22T01:06:10.053Z,13.45
2022-11-22T01:10:11.954Z,10.80
2022-11-22T01:14:14.275Z,11.15
2022-11-22T01:18:15.753Z,11.25
2022-11-22T01:22:17.205Z,11.52
2022-11-22T01:26:18.890Z,9.63
2022-11-22T01:30:20.427Z,13.10
2022-11-22T01:34:21.928Z,12.48
2022-11-22T01:38:23.378Z,13.13
2022-11-22T01:42:42.128Z,11.90
2022-11-22T01:46:43.651Z,11.65
2022-11-22T01:50:49.301Z,12.70
2022-11-22T01:55:12.779Z,5.55
2022-11-22T01:59:18.875Z,12.43
2022-11-22T02:03:21.976Z,9.95
2022-11-22T02:07:36.514Z,10.68
2022-11-22T02:11:43.250Z,11.63
2022-11-22T02:15:44.671Z,12.63
2022-11-22T02:19:48.629Z,12.80
2022-11-22T02:24:24.427Z,11.73
2022-11-22T02:28:29.969Z,12.20
2022-11-22T02:32:31.747Z,11.43
2022-11-22T02:36:37.621Z,11.63
2022-11-22T02:41:05.027Z,10.98
2022-11-22T02:45:06.967Z,12.38
2022-11-22T02:49:08.464Z,11.20
2022-11-22T02:53:11.594Z,11.13
2022-11-22T02:57:13.632Z,9.23
2022-11-22T03:01:15.174Z,11.05
2022-11-22T03:05:16.941Z,12.07
2022-11-22T03:09:18.490Z,12.15
2022-11-22T03:13:19.935Z,10.63
2022-11-22T03:17:21.468Z,12.98
2022-11-22T03:21:22.920Z,11.60
2022-11-22T03:25:25.968Z,13.18
2022-11-22T03:29:27.519Z,12.48
2022-11-22T03:33:29.098Z,12.07
2022-11-22T03:37:30.645Z,12.50
2022-11-22T03:41:32.162Z,11.48
2022-11-22T03:45:33.671Z,11.05
2022-11-22T03:49:35.171Z,13.00
2022-11-22T03:53:37.679Z,12.43
2022-11-22T03:57:39.157Z,12.52
2022-11-22T04:01:40.755Z,11.43
2022-11-22T04:05:42.292Z,13.73
2022-11-22T04:09:43.732Z,9.98
2022-11-22T04:14:03.676Z,7.38
2022-11-22T04:18:05.311Z,14.55
2022-11-22T04:22:06.792Z,12.82
2022-11-22T04:26:08.270Z,13.45
2022-11-22T04:30:10.205Z,10.52
2022-11-22T04:34:11.829Z,13.57
2022-11-22T04:38:14.397Z,12.65
2022-11-22T04:42:34.598Z,13.23
2022-11-22T04:46:36.081Z,11.98
2022-11-22T04:50:56.890Z,10.65
2022-11-22T04:54:58.359Z,12.15
2022-11-22T04:58:59.829Z,15.43
2022-11-22T05:03:01.878Z,11.18
2022-11-22T05:07:03.524Z,15.20
2022-11-22T05:11:05.002Z,17.60
2022-11-22T05:15:07.044Z,15.45
2022-11-22T05:19:08.541Z,11.88
2022-11-22T05:23:28.687Z,17.73
2022-11-22T05:27:30.136Z,17.27
2022-11-22T05:31:33.885Z,17.10
2022-11-22T05:35:35.396Z,13.00
2022-11-22T05:39:36.848Z,15.10
2022-11-22T05:43:38.897Z,16.88
2022-11-22T05:47:40.489Z,16.42
2022-11-22T05:51:41.963Z,17.83
2022-11-22T05:55:43.431Z,18.45
2022-11-22T05:59:44.882Z,19.02
2022-11-22T06:03:46.646Z,16.67
2022-11-22T06:07:48.098Z,11.40
2022-11-22T06:11:49.622Z,17.70
2022-11-22T06:15:51.032Z,19.58
2022-11-22T06:19:52.510Z,16.00
2022-11-22T06:23:55.138Z,16.00
2022-11-22T06:27:59.585Z,18.50
2022-11-22T06:32:03.842Z,16.52
2022-11-22T06:36:11.252Z,15.70
2022-11-22T06:40:13.172Z,18.90
2022-11-22T06:44:14.623Z,15.65
2022-11-22T06:48:16.061Z,15.98
2022-11-22T06:52:17.620Z,20.05
2022-11-22T06:56:20.643Z,16.92
2022-11-22T07:00:22.289Z,17.05
2022-11-22T07:04:23.782Z,16.73
2022-11-22T07:08:25.313Z,17.90
2022-11-22T07:12:26.792Z,17.45
2022-11-22T07:16:28.219Z,18.60
2022-11-22T07:20:29.686Z,18.50
2022-11-22T07:24:31.118Z,17.10
2022-11-22T07:28:32.780Z,16.60
2022-11-22T07:32:34.192Z,18.90
2022-11-22T07:36:35.662Z,16.05
2022-11-22T07:40:37.200Z,17.90
2022-11-22T07:44:38.802Z,15.88
2022-11-22T07:48:40.259Z,17.58
2022-11-22T07:52:41.787Z,15.82
2022-11-22T07:56:43.253Z,16.42
2022-11-22T08:00:44.917Z,14.95
2022-11-22T08:04:46.381Z,12.85
2022-11-22T08:08:47.813Z,15.60
2022-11-22T08:12:49.307Z,14.05
2022-11-22T08:16:50.781Z,16.05
2022-11-22T08:20:52.228Z,17.10
2022-11-22T08:24:53.718Z,12.77
2022-11-22T08:28:55.175Z,16.60
2022-11-22T08:32:56.929Z,15.50
2022-11-22T08:36:58.371Z,13.40
2022-11-22T08:40:59.952Z,16.00
2022-11-22T08:45:01.389Z,7.95
2022-11-22T08:49:06.254Z,16.60
2022-11-22T08:53:07.743Z,14.18
2022-11-22T08:57:09.178Z,18.58
2022-11-22T09:01:15.623Z,14.32
2022-11-22T09:05:17.143Z,8.90
2022-11-22T09:13:40.793Z,16.52
2022-11-22T09:17:43.565Z,17.90
2022-11-22T09:21:45.021Z,17.05
2022-11-22T09:25:46.444Z,20.00
2022-11-22T09:29:47.869Z,19.48
2022-11-22T09:33:50.345Z,17.92
2022-11-22T09:37:51.792Z,18.92
2022-11-22T09:42:21.005Z,18.55
2022-11-22T09:46:31.919Z,17.08
2022-11-22T09:50:57.087Z,17.83
2022-11-22T09:55:24.995Z,17.42
2022-11-22T09:59:31.938Z,18.08
2022-11-22T10:03:48.576Z,16.17
2022-11-22T10:07:58.994Z,17.02
2022-11-22T10:12:15.256Z,15.13
2022-11-22T10:16:20.718Z,15.68
2022-11-22T10:20:29.094Z,14.25
2022-11-22T10:24:31.077Z,17.00
2022-11-22T10:28:36.046Z,18.02
2022-11-22T10:33:17.061Z,18.30
2022-11-22T10:37:25.177Z,18.55
2022-11-22T10:41:52.686Z,17.55
2022-11-22T10:46:08.434Z,16.15
2022-11-22T10:50:28.528Z,17.30
2022-11-22T10:55:10.633Z,15.52
2022-11-22T11:00:09.152Z,16.08
2022-11-22T11:04:15.136Z,15.93
2022-11-22T11:08:47.762Z,16.63
2022-11-22T11:13:02.819Z,17.73
2022-11-22T11:17:06.225Z,17.92
2022-11-22T11:21:07.993Z,16.92
2022-11-22T11:25:33.717Z,16.98
2022-11-22T11:29:41.572Z,13.73
2022-11-22T11:33:43.182Z,17.20
2022-11-22T11:37:44.625Z,18.55
2022-11-22T11:41:47.225Z,16.83
2022-11-22T11:45:49.452Z,17.30
2022-11-22T11:49:52.176Z,18.50
2022-11-22T11:54:01.921Z,17.60
2022-11-22T11:58:22.819Z,15.30
2022-11-22T12:02:35.044Z,17.52
2022-11-22T12:06:36.573Z,16.08
2022-11-22T12:10:49.688Z,17.40
2022-11-22T12:15:11.137Z,18.60
2022-11-22T12:19:24.526Z,17.27
2022-11-22T12:23:26.472Z,16.77
2022-11-22T12:27:28.019Z,18.23
2022-11-22T12:31:36.452Z,17.30
2022-11-22T12:35:43.957Z,18.30
2022-11-22T12:39:48.354Z,18.58
2022-11-22T12:44:18.518Z,18.70
2022-11-22T12:48:33.176Z,18.17
2022-11-22T12:52:34.522Z,16.27
2022-11-22T12:56:56.321Z,16.52
2022-11-22T13:01:05.823Z,17.95
2022-11-22T13:05:23.659Z,19.95
2022-11-22T13:09:35.932Z,19.00
2022-11-22T13:13:41.373Z,17.90
2022-11-22T13:17:43.240Z,16.05
2022-11-22T13:22:12.980Z,12.68
2022-11-22T13:26:47.302Z,16.85
2022-11-22T13:31:09.987Z,17.25
2022-11-22T13:35:11.721Z,16.25
2022-11-22T13:39:18.783Z,18.30
2022-11-22T13:43:22.632Z,16.88
2022-11-22T13:47:24.380Z,17.33
2022-11-22T13:51:56.185Z,16.85
2022-11-22T13:56:18.754Z,13.63
2022-11-22T14:00:21.648Z,18.73
2022-11-22T14:04:26.812Z,22.85
2022-11-22T14:08:35.753Z,23.60
2022-11-22T14:12:53.024Z,17.33
2022-11-22T14:17:22.238Z,18.70
2022-11-22T14:21:56.199Z,16.25
2022-11-22T14:26:21.574Z,15.85
2022-11-22T14:30:38.965Z,17.00
2022-11-22T14:35:17.612Z,16.90
2022-11-22T14:39:56.189Z,16.00
2022-11-22T14:44:27.856Z,15.20
2022-11-22T14:48:37.572Z,16.17
2022-11-22T14:52:39.323Z,17.33
2022-11-22T14:56:43.240Z,16.08
2022-11-22T15:00:50.535Z,15.95
2022-11-22T15:09:10.289Z,17.95
2022-11-22T15:09:53.112Z,16.65
2022-11-22T15:14:21.253Z,16.20
2022-11-22T15:58:32.077Z,27.77
2022-11-22T16:02:49.085Z,14.98
2022-11-22T16:06:52.116Z,18.88
2022-11-22T16:10:53.767Z,18.40
2022-11-22T16:14:56.253Z,16.98
2022-11-22T16:19:27.152Z,16.80
2022-11-22T16:23:31.725Z,17.38
2022-11-22T16:27:33.260Z,19.58
2022-11-22T16:31:34.723Z,17.02
2022-11-22T16:35:36.330Z,17.85
2022-11-22T16:39:37.769Z,17.85
2022-11-22T16:43:39.218Z,17.70
2022-11-22T16:47:40.710Z,19.45
2022-11-22T16:51:46.421Z,19.50
2022-11-22T16:55:48.134Z,19.25
2022-11-22T16:59:49.606Z,18.63
2022-11-22T17:03:56.616Z,21.83
2022-11-22T17:07:58.085Z,20.48
2022-11-22T17:11:59.583Z,19.02
2022-11-22T17:16:01.209Z,18.98
2022-11-22T17:20:02.896Z,19.23
2022-11-22T17:24:13.346Z,20.38
2022-11-22T17:28:14.879Z,20.10
2022-11-22T17:32:16.298Z,19.25
2022-11-22T17:36:30.273Z,20.48
2022-11-22T17:40:31.929Z,18.48
2022-11-22T17:44:34.056Z,20.33
2022-11-22T17:48:35.614Z,21.55
2022-11-22T17:52:37.060Z,17.65
2022-11-22T17:56:38.749Z,18.92
2022-11-22T18:00:40.176Z,19.88
2022-11-22T18:04:42.584Z,21.25
2022-11-22T18:08:47.225Z,20.85
2022-11-22T18:13:05.929Z,20.92
2022-11-22T18:17:10.437Z,19.48
2022-11-22T18:21:17.165Z,19.33
2022-11-22T18:25:18.957Z,19.17
2022-11-22T18:29:41.793Z,18.63
2022-11-22T18:33:41.781Z,21.08
2022-11-22T18:37:43.835Z,18.90
2022-11-22T18:41:47.384Z,19.23
2022-11-22T18:45:48.813Z,20.63
2022-11-22T18:49:50.764Z,15.82
2022-11-22T18:53:52.223Z,20.23
2022-11-22T18:57:53.703Z,22.98
2022-11-22T19:01:55.551Z,20.73
2022-11-22T19:05:57.021Z,17.00
2022-11-22T19:09:59.172Z,21.27
2022-11-22T19:14:01.122Z,20.30
2022-11-22T19:18:02.584Z,18.95
2022-11-22T19:22:07.126Z,20.90
2022-11-22T19:26:11.082Z,21.27
2022-11-22T19:30:13.317Z,22.02
2022-11-22T19:34:14.929Z,18.27
2022-11-22T19:38:16.326Z,18.35
2022-11-22T19:42:17.829Z,20.77
2022-11-22T19:46:19.917Z,21.42
2022-11-22T19:50:22.684Z,21.48
2022-11-22T19:54:25.795Z,20.95
2022-11-22T19:58:27.298Z,21.30
2022-11-22T20:02:31.319Z,22.05
2022-11-22T20:06:34.856Z,19.50
2022-11-22T20:10:38.279Z,20.70
2022-11-22T20:14:39.858Z,21.00
2022-11-22T20:18:41.818Z,21.33
2022-11-22T20:22:43.281Z,21.08
2022-11-22T20:26:44.739Z,21.15
2022-11-22T20:30:46.166Z,20.38
2022-11-22T20:34:47.632Z,20.05
2022-11-22T20:38:50.007Z,20.30
2022-11-22T20:42:51.425Z,12.07
2022-11-22T20:46:53.001Z,17.67
2022-11-22T20:50:54.780Z,19.77
2022-11-22T20:55:00.322Z,21.13
2022-11-22T20:59:05.347Z,21.15
2022-11-22T21:03:08.074Z,19.67
2022-11-22T21:07:09.627Z,19.13
2022-11-22T21:11:19.079Z,20.13
2022-11-22T21:15:20.504Z,16.25
2022-11-22T21:19:21.926Z,21.80
2022-11-22T21:23:23.341Z,19.67
2022-11-22T21:27:24.796Z,20.27
2022-11-22T21:31:27.066Z,19.77
2022-11-22T21:35:28.506Z,19.30
2022-11-22T21:39:29.913Z,20.45
2022-11-22T21:43:31.493Z,20.33
2022-11-22T21:47:32.987Z,20.25
2022-11-22T21:51:34.473Z,20.90
2022-11-22T21:55:36.620Z,21.40
2022-11-22T21:59:38.042Z,19.45
2022-11-22T22:03:40.236Z,21.67
2022-11-22T22:07:52.737Z,19.70
2022-11-22T22:11:54.464Z,18.90
2022-11-22T22:16:00.903Z,21.40
2022-11-22T22:20:02.323Z,22.38
2022-11-22T22:24:04.007Z,20.90
2022-11-22T22:28:05.435Z,20.60
2022-11-22T22:32:10.545Z,20.60
2022-11-22T22:36:12.494Z,19.30
2022-11-22T22:40:14.384Z,21.67
2022-11-22T22:44:15.834Z,20.25
2022-11-22T22:48:18.569Z,20.60
2022-11-22T22:52:19.985Z,19.25
2022-11-22T22:56:22.596Z,17.95
2022-11-22T23:00:24.011Z,19.52
2022-11-22T23:04:25.837Z,20.02
2022-11-22T23:08:27.270Z,20.73
2022-11-22T23:12:28.668Z,22.60
2022-11-22T23:16:30.102Z,19.50
2022-11-22T23:20:31.498Z,22.00
2022-11-22T23:24:33.263Z,22.60
2022-11-22T23:28:35.011Z,20.85
2022-11-22T23:32:36.429Z,22.85
2022-11-22T23:36:40.994Z,18.88
2022-11-22T23:40:42.799Z,21.55
2022-11-22T23:44:44.225Z,23.17
2022-11-22T23:48:47.384Z,21.58
2022-11-22T23:52:55.209Z,20.67
2022-11-22T23:56:56.618Z,21.83
